Time;durP1;ratioP1;P1;durP2;ratioP2;P2;SDS_P1;SDS_P2;PMS_P1;PMS_P2;Temp;Humidity;BMP_temperature;BMP_pressure;BME280_temperature;BME280_humidity;BME280_pressure;Samples;Min_cycle;Max_cycle;Signal;HPM_P1;HPM_P2
2022/01/25 00:31:13;;;;;;;;;;;;;;;5.89;62.56;102197.56;6284051;22;20218;-74
2022/01/25 00:33:39;;;;;;;;;;;;;;;5.87;61.71;102188.75;6272156;22;19918;-75
2022/01/25 00:36:06;;;;;;;;;;;;;;;5.87;62.05;102191.47;6272645;22;20221;-76
2022/01/25 00:38:49;;;;;;;;;;;;;;;5.85;62.30;102196.25;6272383;22;19907;-75
2022/01/25 00:41:26;;;;;;;;;;;;;;;5.83;62.30;102190.19;6275036;22;19935;-76
2022/01/25 00:44:02;;;;;;;;;;;;;;;5.84;62.22;102192.72;6276936;22;20245;-76
2022/01/25 00:46:28;;;;;;;;;;;;;;;5.85;62.06;102196.25;6296123;22;19952;-78
2022/01/25 00:48:59;;;;;;;;;;;;;;;5.91;62.44;102195.50;6293162;22;19907;-79
2022/01/25 00:54:28;;;;;;;;;;;;;;;5.89;61.93;102187.53;6273381;22;19903;-77
2022/01/25 00:57:06;;;;;;;;;;;;;;;5.87;62.19;102194.19;6275064;22;19903;-78
2022/01/25 00:59:32;;;;;;;;;;;;;;;5.81;61.93;102197.66;6273162;22;19929;-78
2022/01/25 01:01:59;;;;;;;;;;;;;;;5.79;61.99;102186.19;6273680;22;19907;-77
2022/01/25 01:04:24;;;;;;;;;;;;;;;5.78;62.51;102193.47;6272793;22;19957;-77
2022/01/25 01:06:57;;;;;;;;;;;;;;;5.77;63.15;102195.34;6274621;22;20314;-77
2022/01/25 01:09:28;;;;;;;;;;;;;;;5.78;62.05;102190.75;6279787;22;20464;-75
2022/01/25 01:12:03;;;;;;;;;;;;;;;5.77;62.14;102192.63;6277687;22;19907;-76
2022/01/25 01:44:03;;;;;;;;;;;;;;;5.56;62.49;102170.84;6277274;22;20321;-74
2022/01/25 01:48:58;;;;;;;;;;;;;;;5.53;62.92;102176.66;6286994;22;19903;-76
2022/01/25 01:51:36;;;;;;;;;;;;;;;5.52;62.02;102181.25;6276610;22;19907;-75
2022/01/25 01:54:13;;;;;;;;;;;;;;;5.51;62.22;102179.56;6276318;22;19914;-76
2022/01/25 01:59:25;;;;;;;;;;;;;;;5.48;61.98;102179.13;6263961;22;19914;-75
2022/01/25 02:01:52;;;;;;;;;;;;;;;5.42;62.86;102178.84;6275560;22;19907;-76
2022/01/25 02:04:18;;;;;;;;;;;;;;;5.40;62.75;102183.63;6273285;22;19903;-76
2022/01/25 02:06:43;;;;;;;;;;;;;;;5.35;62.00;102180.63;6277208;22;19910;-77
2022/01/25 02:09:09;;;;;;;;;;;;;;;5.33;62.05;102177.25;6248737;22;19907;-76
2022/01/25 02:11:35;;;;;;;;;;;;;;;5.32;62.39;102177.44;6277233;22;19911;-77
2022/01/25 02:14:08;;;;;;;;;;;;;;;5.30;63.09;102180.34;6278122;22;19911;-76
2022/01/25 02:17:23;;;;;;;;;;;;;;;;;;;;;
2022/01/25 02:22:32;;;;;;;;;;;;;;;5.24;62.86;102170.22;6280587;22;19956;-77
2022/01/25 02:24:57;;;;;;;;;;;;;;;5.25;63.16;102171.91;6297495;22;19913;-75
2022/01/25 02:27:30;;;;;;;;;;;;;;;5.25;62.15;102170.03;6298312;22;20182;-73
2022/01/25 02:29:56;;;;;;;;;;;;;;;5.26;62.92;102165.47;6292665;22;19974;-74
2022/01/25 02:32:21;;;;;;;;;;;;;;;5.23;62.12;102168.56;6273280;22;19969;-74
2022/01/25 02:34:46;;;;;;;;;;;;;;;5.21;63.08;102165.19;6249089;22;19907;-74
2022/01/25 02:37:13;;;;;;;;;;;;;;;5.20;63.21;102161.66;6273487;22;19907;-72
2022/01/25 02:39:45;;;;;;;;;;;;;;;5.23;63.10;102171.28;6275824;22;19922;-73
2022/01/25 02:42:11;;;;;;;;;;;;;;;5.26;62.36;102165.47;6275601;22;19994;-74
2022/01/25 02:44:55;;;;;;;;;;;;;;;5.24;63.08;102162.94;6275312;22;20299;-74
2022/01/25 02:50:05;;;;;;;;;;;;;;;5.26;63.43;102168.19;6274366;22;20248;-74
2022/01/25 02:52:32;;;;;;;;;;;;;;;5.27;63.05;102167.16;6277481;22;19934;-73
2022/01/25 02:54:58;;;;;;;;;;;;;;;5.21;63.12;102162.47;6276181;22;19907;-74
2022/01/25 02:57:31;;;;;;;;;;;;;;;5.19;62.76;102157.25;6282717;22;19922;-76
2022/01/25 03:00:00;;;;;;;;;;;;;;;5.16;63.37;102165.75;6251982;22;20288;-77
2022/01/25 03:02:33;;;;;;;;;;;;;;;5.16;62.58;102160.31;6274768;22;19903;-77
2022/01/25 03:04:59;;;;;;;;;;;;;;;5.19;63.30;102164.53;6278534;22;19952;-76
2022/01/25 03:07:24;;;;;;;;;;;;;;;5.18;63.35;102168.28;6287973;22;19907;-74
2022/01/25 03:09:59;;;;;;;;;;;;;;;5.16;62.83;102164.91;6294725;22;19908;-75
2022/01/25 03:12:47;;;;;;;;;;;;;;;5.13;63.39;102170.72;6298057;22;19891;-75
2022/01/25 03:17:45;;;;;;;;;;;;;;;5.06;63.67;102157.88;6306440;22;19989;-75
2022/01/25 03:20:47;;;;;;;;;;;;;;;5.05;63.65;102155.38;6302372;22;19895;-74
2022/01/25 03:23:28;;;;;;;;;;;;;;;;;;;;;
2022/01/25 03:25:56;;;;;;;;;;;;;;;5.05;63.62;102148.09;6298111;22;19899;-75
2022/01/25 03:28:30;;;;;;;;;;;;;;;5.05;63.36;102152.66;6291708;22;20325;-76
2022/01/25 03:30:55;;;;;;;;;;;;;;;5.00;63.51;102149.69;6272728;22;20247;-76
2022/01/25 03:33:21;;;;;;;;;;;;;;;4.96;62.82;102151.91;6276596;22;19911;-76
2022/01/25 03:35:46;;;;;;;;;;;;;;;5.00;63.09;102149.69;6275743;22;19914;-75
2022/01/25 03:38:12;;;;;;;;;;;;;;;5.03;63.85;102150.13;6267290;22;20317;-74
2022/01/25 03:40:37;;;;;;;;;;;;;;;5.06;63.79;102155.19;6274350;22;19982;-75
2022/01/25 03:43:08;;;;;;;;;;;;;;;5.07;63.02;102151.44;6246120;22;19918;-75
2022/01/25 03:45:38;;;;;;;;;;;;;;;5.09;63.54;102147.72;6270891;22;19977;-74
2022/01/25 03:50:43;;;;;;;;;;;;;;;5.07;62.92;102161.47;6273100;22;19933;-76
2022/01/25 03:53:11;;;;;;;;;;;;;;;5.06;63.56;102157.88;6272512;22;19990;-75
2022/01/25 03:55:37;;;;;;;;;;;;;;;5.05;62.86;102158.94;6272488;22;19938;-74
2022/01/25 03:58:06;;;;;;;;;;;;;;;5.06;62.96;102155.19;6271816;22;19907;-74
2022/01/25 04:00:31;;;;;;;;;;;;;;;5.04;62.83;102151.81;6271297;22;19956;-75
2022/01/25 04:03:21;;;;;;;;;;;;;;;5.05;63.73;102158.94;6275542;22;19907;-76
2022/01/25 04:05:50;;;;;;;;;;;;;;;5.05;63.60;102153.50;6273150;22;19907;-75
2022/01/25 04:08:19;;;;;;;;;;;;;;;5.06;63.40;102151.63;6271584;22;20018;-76
2022/01/25 04:10:47;;;;;;;;;;;;;;;5.04;63.15;102157.25;6274332;22;19903;-76
2022/01/25 04:13:19;;;;;;;;;;;;;;;4.96;63.49;102157.31;6271853;22;19907;-76
2022/01/25 04:15:46;;;;;;;;;;;;;;;4.88;63.27;102150.13;6249040;22;19964;-76
2022/01/25 04:18:35;;;;;;;;;;;;;;;4.86;63.20;102154.03;6273447;22;19907;-75
2022/01/25 04:21:24;;;;;;;;;;;;;;;4.89;63.38;102142.81;6273450;22;19935;-73
2022/01/25 04:26:36;;;;;;;;;;;;;;;4.95;63.06;102142.09;6274758;22;20252;-73
2022/01/25 04:29:06;;;;;;;;;;;;;;;4.95;63.12;102142.09;6246514;22;19907;-74
2022/01/25 04:31:31;;;;;;;;;;;;;;;4.94;63.29;102140.41;6272011;22;19911;-74
2022/01/25 04:34:26;;;;;;;;;;;;;;;4.93;63.87;102141.44;6248383;22;19990;-73
2022/01/25 04:51:35;;;;;;;;;;;;;;;4.85;63.99;102145.09;6273271;22;20604;-78
2022/01/25 04:54:12;;;;;;;;;;;;;;;4.84;63.98;102150.69;6275326;22;19903;-77
2022/01/25 04:59:25;;;;;;;;;;;;;;;4.84;63.99;102139.84;6284508;22;19914;-77
2022/01/25 05:01:54;;;;;;;;;;;;;;;4.88;64.00;102146.59;6250924;22;19907;-77
2022/01/25 05:04:30;;;;;;;;;;;;;;;4.91;64.42;102146.22;6272960;22;19965;-78
2022/01/25 05:07:15;;;;;;;;;;;;;;;4.93;63.40;102143.31;6274793;22;19930;-77
2022/01/25 05:09:43;;;;;;;;;;;;;;;4.94;63.48;102145.84;6273216;22;19923;-77
2022/01/25 05:12:18;;;;;;;;;;;;;;;4.95;64.26;102141.25;6276362;22;19907;-77
2022/01/25 05:15:06;;;;;;;;;;;;;;;4.96;63.92;102143.78;6272067;22;19903;-78
2022/01/25 05:17:43;;;;;;;;;;;;;;;4.98;63.65;102140.88;6274208;22;19903;-78
2022/01/25 05:22:55;;;;;;;;;;;;;;;4.98;64.34;102147.16;6273815;22;19914;-75
2022/01/25 05:25:21;;;;;;;;;;;;;;;4.99;63.73;102143.41;6273211;22;20401;-76
2022/01/25 05:27:59;;;;;;;;;;;;;;;5.01;63.67;102137.81;6271217;22;19903;-78
2022/01/25 05:30:26;;;;;;;;;;;;;;;5.01;63.56;102138.66;6276731;22;20222;-79
2022/01/25 05:32:55;;;;;;;;;;;;;;;5.01;63.11;102135.94;6272625;22;19911;-77
2022/01/25 05:35:48;;;;;;;;;;;;;;;5.04;63.25;102142.84;6280219;22;19911;-76
2022/01/25 05:38:15;;;;;;;;;;;;;;;5.04;63.43;102135.56;6296505;22;19915;-76
2022/01/25 05:40:59;;;;;;;;;;;;;;;4.99;63.95;102127.13;6295353;22;19949;-77
2022/01/25 05:46:21;;;;;;;;;;;;;;;4.95;63.79;102133.13;6283985;22;19930;-77
2022/01/25 05:48:55;;;;;;;;;;;;;;;4.89;63.58;102129.28;6271310;22;20358;-76
2022/01/25 05:51:20;;;;;;;;;;;;;;;4.83;62.93;102124.59;6274670;22;19941;-77
2022/01/25 05:53:46;;;;;;;;;;;;;;;4.72;63.22;102121.31;6276773;22;19949;-78
2022/01/25 05:56:21;;;;;;;;;;;;;;;4.70;64.11;102119.81;6277328;22;20296;-76
2022/01/25 05:58:46;;;;;;;;;;;;;;;4.67;63.41;102112.94;6248428;22;19911;-76
2022/01/25 06:01:11;;;;;;;;;;;;;;;4.62;63.33;102120.75;6278130;22;19903;-77
2022/01/25 06:03:40;;;;;;;;;;;;;;;4.58;63.80;102119.44;6273048;22;20302;-76
2022/01/25 06:06:08;;;;;;;;;;;;;;;4.55;63.42;102122.53;6275614;22;19950;-77
2022/01/25 06:08:36;;;;;;;;;;;;;;;4.53;63.59;102114.56;6272604;22;19907;-77
2022/01/25 06:11:04;;;;;;;;;;;;;;;4.56;64.18;102132.34;6276887;22;19918;-77
2022/01/25 06:13:32;;;;;;;;;;;;;;;4.58;64.24;102124.84;6250138;22;19986;-78
2022/01/25 06:15:58;;;;;;;;;;;;;;;4.57;63.77;102125.91;6273740;22;19982;-77
2022/01/25 06:18:23;;;;;;;;;;;;;;;4.60;63.78;102122.81;6277113;22;19945;-77
2022/01/25 06:20:48;;;;;;;;;;;;;;;4.63;63.70;102129.72;6274348;22;19933;-77
2022/01/25 06:23:14;;;;;;;;;;;;;;;4.65;63.96;102131.22;6274223;22;19930;-78
2022/01/25 06:25:41;;;;;;;;;;;;;;;4.65;63.65;102125.81;6276718;22;19910;-78
2022/01/25 06:28:06;;;;;;;;;;;;;;;4.65;63.61;102131.22;6274395;22;19960;-77
2022/01/25 06:30:39;;;;;;;;;;;;;;;4.66;63.48;102126.66;6275326;22;19957;-76
2022/01/25 06:33:07;;;;;;;;;;;;;;;4.66;64.26;102132.91;6273485;22;19915;-75
2022/01/25 06:35:35;;;;;;;;;;;;;;;4.66;63.95;102124.78;6276234;22;19907;-74
2022/01/25 06:38:00;;;;;;;;;;;;;;;4.64;63.65;102134.13;6276794;22;19907;-74
2022/01/25 06:40:26;;;;;;;;;;;;;;;4.63;64.25;102122.44;6287337;22;19914;-76
2022/01/25 06:42:51;;;;;;;;;;;;;;;4.63;64.24;102127.88;6296581;22;19913;-76
2022/01/25 06:45:19;;;;;;;;;;;;;;;4.64;63.78;102123.28;6291931;22;19930;-75
2022/01/25 06:47:48;;;;;;;;;;;;;;;4.65;63.79;102131.22;6287116;22;19978;-80
2022/01/25 06:50:23;;;;;;;;;;;;;;;4.63;64.22;102130.56;6285992;22;19903;-79
2022/01/25 06:52:51;;;;;;;;;;;;;;;4.70;63.72;102138.78;6292484;22;19919;-76
2022/01/25 06:55:19;;;;;;;;;;;;;;;4.69;63.85;102143.38;6297556;22;19929;-75
2022/01/25 06:57:46;;;;;;;;;;;;;;;4.70;63.72;102138.78;6296309;22;19913;-74
2022/01/25 07:00:18;;;;;;;;;;;;;;;4.72;63.69;102143.00;6278841;22;19907;-77
2022/01/25 07:02:43;;;;;;;;;;;;;;;4.75;64.14;102143.69;6283336;22;20303;-77
2022/01/25 07:05:11;;;;;;;;;;;;;;;4.73;64.17;102143.84;6271240;22;19902;-75
2022/01/25 07:07:37;;;;;;;;;;;;;;;4.74;64.01;102150.94;6298500;22;19899;-75
2022/01/25 07:10:06;;;;;;;;;;;;;;;4.76;63.64;102142.63;6298190;22;20279;-75
2022/01/25 07:12:37;;;;;;;;;;;;;;;4.75;64.42;102141.81;6282841;22;19965;-77
2022/01/25 07:15:03;;;;;;;;;;;;;;;4.75;63.84;102147.22;6274739;22;19979;-75
2022/01/25 07:17:28;;;;;;;;;;;;;;;4.76;64.57;102139.94;6276722;22;19934;-75
2022/01/25 07:19:56;;;;;;;;;;;;;;;4.76;63.74;102137.22;6273024;22;19926;-77
2022/01/25 07:22:21;;;;;;;;;;;;;;;4.74;64.43;102140.09;6274909;22;19957;-75
2022/01/25 07:24:47;;;;;;;;;;;;;;;4.71;64.25;102135.06;6276710;22;19907;-77
2022/01/25 07:27:12;;;;;;;;;;;;;;;4.66;63.96;102141.03;6275882;22;19926;-76
2022/01/25 07:29:40;;;;;;;;;;;;;;;4.63;64.03;102151.41;6274680;22;19933;-75
2022/01/25 07:32:05;;;;;;;;;;;;;;;4.61;64.55;102146.16;6271307;22;19976;-75
2022/01/25 07:34:30;;;;;;;;;;;;;;;4.62;64.20;102147.03;6275380;22;20287;-75
2022/01/25 07:36:56;;;;;;;;;;;;;;;4.64;64.22;102150.38;6274035;22;19913;-75
2022/01/25 07:39:26;;;;;;;;;;;;;;;4.65;64.42;102141.22;6275031;22;19911;-76
2022/01/25 07:41:56;;;;;;;;;;;;;;;4.63;64.06;102145.97;6274923;22;20025;-78
2022/01/25 07:44:32;;;;;;;;;;;;;;;4.59;64.44;102144.69;6274050;22;19903;-78
2022/01/25 07:47:07;;;;;;;;;;;;;;;4.55;64.08;102147.72;6250902;22;19911;-77
2022/01/25 07:49:33;;;;;;;;;;;;;;;4.54;64.16;102161.47;6273292;22;19910;-76
2022/01/25 07:52:07;;;;;;;;;;;;;;;4.54;64.76;102158.75;6274294;22;19911;-75
2022/01/25 07:54:42;;;;;;;;;;;;;;;4.56;64.85;102154.00;6273818;22;19903;-77
2022/01/25 07:57:07;;;;;;;;;;;;;;;4.56;64.13;102154.00;6275356;22;19907;-77
2022/01/25 07:59:33;;;;;;;;;;;;;;;4.57;64.10;102155.72;6274478;22;19993;-75
2022/01/25 08:01:58;;;;;;;;;;;;;;;4.57;64.50;102150.28;6273459;22;20233;-82
2022/01/25 08:04:54;;;;;;;;;;;;;;;4.55;64.03;102152.31;6278543;22;19903;-79
2022/01/25 08:07:19;;;;;;;;;;;;;;;4.54;64.34;102158.75;6276021;22;19969;-78
2022/01/25 08:10:08;;;;;;;;;;;;;;;4.50;64.33;102160.19;6278121;22;19903;-78
2022/01/25 08:12:33;;;;;;;;;;;;;;;4.47;64.21;102160.53;6278919;22;19903;-80
2022/01/25 08:15:02;;;;;;;;;;;;;;;4.45;64.61;102165.28;6278454;22;19931;-79
2022/01/25 08:17:37;;;;;;;;;;;;;;;4.49;64.51;102166.59;6274228;22;19925;-76
2022/01/25 08:20:04;;;;;;;;;;;;;;;4.55;64.16;102168.59;6273299;22;19907;-78
2022/01/25 08:22:45;;;;;;;;;;;;;;;4.60;64.09;102171.59;6277099;22;19911;-76
2022/01/25 08:25:11;;;;;;;;;;;;;;;4.60;64.23;102171.59;6275551;22;19907;-77
2022/01/25 08:27:47;;;;;;;;;;;;;;;4.62;64.09;102169.53;6276241;22;19933;-81
2022/01/25 08:30:12;;;;;;;;;;;;;;;4.61;64.86;102173.25;6277688;22;19903;-76
2022/01/25 08:32:38;;;;;;;;;;;;;;;4.60;64.78;102168.03;6274448;22;19986;-78
2022/01/25 08:35:06;;;;;;;;;;;;;;;4.61;64.72;102178.69;6249962;22;20010;-78
2022/01/25 08:40:20;;;;;;;;;;;;;;;4.65;64.14;102179.16;6269072;22;19907;-80
2022/01/25 08:42:54;;;;;;;;;;;;;;;4.68;64.72;102176.91;6272522;22;20418;-80
2022/01/25 08:45:27;;;;;;;;;;;;;;;4.68;64.64;102179.63;6275115;22;19958;-79
2022/01/25 08:47:52;;;;;;;;;;;;;;;4.69;64.16;102181.31;6272368;22;19978;-80
2022/01/25 08:50:18;;;;;;;;;;;;;;;4.67;64.01;102183.38;6274253;22;19930;-80
2022/01/25 08:52:43;;;;;;;;;;;;;;;4.66;64.44;102187.13;6272878;22;19907;-78
2022/01/25 08:55:11;;;;;;;;;;;;;;;4.66;64.45;102186.28;6272814;22;19992;-75
2022/01/25 08:57:37;;;;;;;;;;;;;;;4.68;64.15;102190.47;6250580;22;19915;-74
2022/01/25 09:00:07;;;;;;;;;;;;;;;4.70;64.05;102190.28;6276474;22;20352;-73
2022/01/25 09:02:33;;;;;;;;;;;;;;;4.72;64.50;102180.13;6271282;22;19983;-73
2022/01/25 09:04:58;;;;;;;;;;;;;;;4.74;64.82;102179.94;6273719;22;20322;-77
2022/01/25 09:07:29;;;;;;;;;;;;;;;4.77;64.20;102183.09;6272362;22;19962;-77
2022/01/25 09:09:56;;;;;;;;;;;;;;;4.80;63.99;102181.91;6274169;22;20310;-76
2022/01/25 09:12:22;;;;;;;;;;;;;;;4.79;63.99;102182.91;6274988;22;20001;-76
2022/01/25 09:14:47;;;;;;;;;;;;;;;4.79;64.22;102188.34;6246996;22;19950;-77
2022/01/25 09:17:13;;;;;;;;;;;;;;;4.79;64.41;102180.22;6247876;22;19907;-77
2022/01/25 09:19:38;;;;;;;;;;;;;;;4.84;64.11;102183.22;6247622;22;19921;-77
2022/01/25 09:22:05;;;;;;;;;;;;;;;4.85;63.88;102190.34;6273502;22;19908;-76
2022/01/25 09:24:30;;;;;;;;;;;;;;;4.85;63.90;102190.34;6273546;22;19911;-77
2022/01/25 09:27:08;;;;;;;;;;;;;;;;;;;;;
2022/01/25 09:29:34;;;;;;;;;;;;;;;4.94;64.06;102193.81;6274526;22;20381;-75
2022/01/25 09:31:59;;;;;;;;;;;;;;;4.98;63.87;102190.53;6275759;22;19953;-75
2022/01/25 09:34:27;;;;;;;;;;;;;;;5.04;64.61;102195.22;6272938;22;19986;-74
2022/01/25 09:36:53;;;;;;;;;;;;;;;5.10;63.80;102203.66;6275753;22;20187;-75
2022/01/25 09:39:21;;;;;;;;;;;;;;;5.15;64.58;102207.44;6272999;22;19942;-74
2022/01/25 09:41:46;;;;;;;;;;;;;;;5.22;64.46;102202.13;6274982;22;20688;-74
2022/01/25 09:44:11;;;;;;;;;;;;;;;5.25;64.34;102201.75;6278800;22;19910;-77
2022/01/25 09:46:39;;;;;;;;;;;;;;;5.26;64.32;102208.88;6278443;22;19904;-75
2022/01/25 09:49:04;;;;;;;;;;;;;;;5.28;63.90;102214.94;6292807;22;19903;-76
2022/01/25 09:51:32;;;;;;;;;;;;;;;5.29;63.45;102213.94;6286048;22;19935;-76
2022/01/25 09:53:58;;;;;;;;;;;;;;;5.30;63.97;102218.34;6274608;22;19985;-75
2022/01/25 09:56:33;;;;;;;;;;;;;;;5.34;64.17;102216.91;6276069;22;19903;-75
2022/01/25 09:58:58;;;;;;;;;;;;;;;5.36;63.53;102214.88;6276447;22;19918;-76
2022/01/25 10:01:28;;;;;;;;;;;;;;;5.39;64.20;102225.34;6276492;22;19923;-77
2022/01/25 10:03:53;;;;;;;;;;;;;;;5.41;63.91;102223.25;6276651;22;19907;-78
2022/01/25 10:06:21;;;;;;;;;;;;;;;5.42;62.95;102218.69;6279050;22;20000;-75
2022/01/25 10:08:49;;;;;;;;;;;;;;;5.42;62.80;102227.66;6275983;22;19910;-77
2022/01/25 10:11:16;;;;;;;;;;;;;;;5.47;63.80;102220.84;6278295;22;19910;-76
2022/01/25 10:13:44;;;;;;;;;;;;;;;5.50;63.56;102218.59;6276786;22;19907;-75
2022/01/25 10:16:11;;;;;;;;;;;;;;;5.56;62.91;102225.13;6273639;22;19903;-73
2022/01/25 10:18:57;;;;;;;;;;;;;;;5.61;63.20;102222.72;6275763;22;19907;-75
2022/01/25 10:21:29;;;;;;;;;;;;;;;5.63;63.60;102236.91;6271792;22;19904;-74
2022/01/25 10:23:58;;;;;;;;;;;;;;;5.64;63.24;102227.75;6275883;22;19982;-74
2022/01/25 10:26:24;;;;;;;;;;;;;;;5.64;62.79;102235.06;6244978;22;19907;-75
2022/01/25 10:28:50;;;;;;;;;;;;;;;5.64;63.01;102238.63;6274940;22;19988;-75
2022/01/25 10:31:15;;;;;;;;;;;;;;;5.66;63.57;102236.53;6275305;22;19957;-74
2022/01/25 10:33:50;;;;;;;;;;;;;;;5.70;63.24;102243.28;6248441;22;20252;-75
2022/01/25 10:36:22;;;;;;;;;;;;;;;5.71;63.08;102238.69;6271929;22;20006;-74
2022/01/25 10:38:49;;;;;;;;;;;;;;;5.69;62.94;102243.47;6276005;22;19907;-74
2022/01/25 10:41:16;;;;;;;;;;;;;;;5.68;62.11;102253.50;6284662;22;19903;-75
2022/01/25 10:43:45;;;;;;;;;;;;;;;5.69;63.27;102249.72;6285877;22;19903;-76
2022/01/25 10:46:30;;;;;;;;;;;;;;;5.70;63.38;102256.84;6286825;22;19903;-75
2022/01/25 10:49:04;;;;;;;;;;;;;;;5.71;62.07;102253.13;6286999;22;19903;-73
2022/01/25 10:51:29;;;;;;;;;;;;;;;5.71;62.21;102253.13;6286777;22;19903;-76
2022/01/25 10:54:03;;;;;;;;;;;;;;;5.71;62.82;102255.84;6285830;22;19903;-77
2022/01/25 10:56:42;;;;;;;;;;;;;;;5.72;62.10;102256.66;6299576;22;19911;-74
2022/01/25 10:59:09;;;;;;;;;;;;;;;5.71;62.98;102261.25;6288084;22;19914;-75
2022/01/25 11:01:36;;;;;;;;;;;;;;;5.71;62.26;102258.53;6289478;22;19907;-74
2022/01/25 11:07:35;;;;;;;;;;;;;;;5.68;62.58;102249.91;6105325;23;20327;-77
2022/01/25 11:10:00;;;;;;;;;;;;;;;5.68;61.92;102255.34;6080934;23;19940;-74
2022/01/25 11:12:38;;;;;;;;;;;;;;;5.68;61.87;102258.06;6247802;22;19907;-72
2022/01/25 11:15:04;;;;;;;;;;;;;;;5.67;61.94;102265.38;6291563;22;19903;-75
2022/01/25 11:17:55;;;;;;;;;;;;;;;5.68;62.05;102267.06;6294575;22;19906;-73
2022/01/25 11:20:23;;;;;;;;;;;;;;;5.71;61.87;102269.41;6293663;22;19911;-76
2022/01/25 11:22:49;;;;;;;;;;;;;;;5.73;62.98;102272.75;6285385;22;19911;-72
2022/01/25 11:25:17;;;;;;;;;;;;;;;5.73;62.34;102275.47;6285537;22;19903;-74
2022/01/25 11:27:56;;;;;;;;;;;;;;;5.73;62.18;102270.03;6289751;22;19903;-75
2022/01/25 11:41:45;;;;;;;;;;;;;;;5.81;62.06;102266.41;6259516;22;19915;-76
2022/01/25 11:44:18;;;;;;;;;;;;;;;5.83;62.37;102263.50;6208673;23;19911;-78
2022/01/25 11:46:46;;;;;;;;;;;;;;;5.85;61.93;102266.84;6231979;23;19907;-75
2022/01/25 11:49:17;;;;;;;;;;;;;;;5.84;62.40;102265.16;6230535;23;19910;-74
2022/01/25 11:51:43;;;;;;;;;;;;;;;5.89;62.21;102268.16;6256299;23;20238;-75
2022/01/25 11:54:09;;;;;;;;;;;;;;;6.16;63.00;102271.22;6256500;23;19904;-74
2022/01/25 11:56:42;;;;;;;;;;;;;;;6.26;62.85;102269.03;6229182;23;19913;-75
2022/01/25 11:59:12;;;;;;;;;;;;;;;6.29;62.31;102263.22;6256664;23;20413;-75
2022/01/25 12:01:40;;;;;;;;;;;;;;;6.24;61.46;102269.22;6229503;23;19903;-76
2022/01/25 12:04:07;;;;;;;;;;;;;;;6.26;61.49;102258.16;6202481;23;19908;-75
2022/01/25 12:06:42;;;;;;;;;;;;;;;6.34;61.65;102257.19;6228690;23;19903;-75
2022/01/25 12:09:20;;;;;;;;;;;;;;;6.36;61.27;102253.25;6256338;23;19903;-75
2022/01/25 12:12:12;;;;;;;;;;;;;;;6.32;61.65;102256.56;6256248;23;19903;-76
2022/01/25 12:14:43;;;;;;;;;;;;;;;6.22;61.48;102246.88;6246612;23;19953;-74
2022/01/25 12:17:10;;;;;;;;;;;;;;;6.10;60.85;102243.81;6255179;23;19903;-75
2022/01/25 12:19:47;;;;;;;;;;;;;;;6.05;60.77;102240.81;6229351;23;19911;-73
2022/01/25 12:22:33;;;;;;;;;;;;;;;6.05;61.60;102243.53;6255724;23;19908;-74
2022/01/25 12:25:23;;;;;;;;;;;;;;;6.08;62.23;102240.44;6226750;23;19904;-74
2022/01/25 12:27:48;;;;;;;;;;;;;;;6.17;61.33;102234.88;6253907;23;19910;-74
2022/01/25 12:30:34;;;;;;;;;;;;;;;6.23;61.44;102236.81;6227188;23;20344;-73
2022/01/25 12:33:08;;;;;;;;;;;;;;;6.21;61.92;102234.31;6079712;23;19905;-74
2022/01/25 12:35:34;;;;;;;;;;;;;;;6.37;61.46;102238.66;6237001;23;19908;-76
2022/01/25 12:38:01;;;;;;;;;;;;;;;6.56;61.31;102236.34;6229231;23;19958;-73
2022/01/25 12:40:29;;;;;;;;;;;;;;;6.63;60.99;102234.53;6233470;23;19930;-74
2022/01/25 12:42:56;;;;;;;;;;;;;;;6.67;61.34;102238.50;6260827;23;19923;-74
2022/01/25 12:45:24;;;;;;;;;;;;;;;6.70;61.36;102238.13;6263820;23;19903;-74
2022/01/25 12:47:52;;;;;;;;;;;;;;;6.71;61.40;102228.94;6257147;23;19957;-73
2022/01/25 12:50:17;;;;;;;;;;;;;;;6.71;60.34;102222.66;6251094;23;20280;-73
2022/01/25 12:52:44;;;;;;;;;;;;;;;6.59;60.44;102225.91;6227293;23;19931;-73
2022/01/25 12:55:10;;;;;;;;;;;;;;;6.57;60.02;102224.41;6255024;22;19908;-73
2022/01/25 12:57:36;;;;;;;;;;;;;;;6.64;60.89;102230.75;6254824;23;19911;-72
2022/01/25 13:00:05;;;;;;;;;;;;;;;6.73;60.43;102210.56;6251876;23;19915;-74
2022/01/25 13:02:30;;;;;;;;;;;;;;;6.80;61.02;102206.00;6255702;22;19903;-74
2022/01/25 13:04:56;;;;;;;;;;;;;;;6.89;60.94;102208.56;6253727;23;19918;-74
2022/01/25 13:07:23;;;;;;;;;;;;;;;7.01;59.75;102207.00;6229404;23;19911;-74
2022/01/25 13:09:54;;;;;;;;;;;;;;;7.09;59.46;102206.81;6254069;22;20429;-74
2022/01/25 13:13:11;;;;;;;;;;;;;;;7.11;60.23;102202.03;6253990;23;19912;-74
2022/01/25 13:24:30;;;;;;;;;;;;;;;6.93;59.73;102205.25;6133405;23;19937;-74
2022/01/25 13:26:58;;;;;;;;;;;;;;;6.90;59.41;102196.66;6108065;23;19904;-75
2022/01/25 13:32:41;;;;;;;;;;;;;;;6.59;58.13;102197.88;6250721;22;20281;-74
2022/01/25 13:35:47;;;;;;;;;;;;;;;;;;;;;
2022/01/25 13:38:12;;;;;;;;;;;;;;;6.41;58.67;102191.03;6251672;22;19911;-75
2022/01/25 13:40:49;;;;;;;;;;;;;;;6.47;59.38;102183.97;6256952;22;19986;-74
2022/01/25 13:45:53;;;;;;;;;;;;;;;6.47;58.09;102183.97;6256904;23;19926;-75
2022/01/25 13:48:21;;;;;;;;;;;;;;;6.50;59.01;102180.00;6262191;23;19904;-75
2022/01/25 13:50:46;;;;;;;;;;;;;;;6.43;58.73;102180.81;6239893;23;19951;-74
2022/01/25 13:53:22;;;;;;;;;;;;;;;;;;;;;
2022/01/25 13:56:08;;;;;;;;;;;;;;;6.10;57.63;102185.91;6269559;22;19919;-78
2022/01/25 13:58:40;;;;;;;;;;;;;;;5.81;58.16;102187.69;6216689;23;19957;-76
2022/01/25 14:01:09;;;;;;;;;;;;;;;5.57;58.86;102188.84;6256166;23;19904;-78
2022/01/25 14:03:44;;;;;;;;;;;;;;;5.40;59.39;102189.03;6246324;23;19904;-75
2022/01/25 14:06:28;;;;;;;;;;;;;;;5.36;59.85;102186.88;6220465;23;19980;-76
2022/01/25 14:09:02;;;;;;;;;;;;;;;5.38;60.12;102196.50;6218876;23;19908;-75
2022/01/25 14:29:23;;;;;;;;;;;;;;;5.20;60.50;102198.78;6113418;23;19989;-76
2022/01/25 14:38:30;;;;;;;;;;;;;;;;;;;;;
2022/01/25 15:05:59;;;;;;;;;;;;;;;4.87;62.00;102177.44;6219762;23;20271;-75
2022/01/25 15:08:32;;;;;;;;;;;;;;;4.87;62.34;102178.25;6260751;23;19904;-75
2022/01/25 15:11:00;;;;;;;;;;;;;;;4.84;61.60;102177.81;6235992;23;19904;-74
2022/01/25 15:13:29;;;;;;;;;;;;;;;4.82;62.49;102169.00;6265750;23;19910;-76
2022/01/25 15:15:56;;;;;;;;;;;;;;;4.76;62.52;102175.16;6234359;23;19915;-74
2022/01/25 15:18:30;;;;;;;;;;;;;;;4.72;62.13;102175.53;6225901;23;20486;-76
2022/01/25 15:21:23;;;;;;;;;;;;;;;4.70;62.70;102177.59;6225623;23;19907;-76
2022/01/25 15:23:50;;;;;;;;;;;;;;;4.68;61.97;102174.22;6209864;23;20251;-77
2022/01/25 15:26:19;;;;;;;;;;;;;;;4.65;62.49;102174.59;6226014;23;19927;-77
2022/01/25 15:28:57;;;;;;;;;;;;;;;4.63;62.10;102173.94;6228638;23;19903;-77
2022/01/25 15:31:28;;;;;;;;;;;;;;;4.63;62.50;102170.38;6259035;23;19895;-74
2022/01/25 15:34:43;;;;;;;;;;;;;;;4.60;62.32;102177.00;6232056;23;19947;-76
2022/01/25 15:36:47;;;;;;;;;;;;;;;4.59;63.26;102188.03;6236128;23;19950;-78
2022/01/25 15:39:21;;;;;;;;;;;;;;;4.59;63.08;102180.75;6230196;23;19907;-76
2022/01/25 15:41:56;;;;;;;;;;;;;;;4.62;62.87;102180.38;6234348;23;19911;-75
2022/01/25 15:44:48;;;;;;;;;;;;;;;4.65;63.13;102180.00;6228456;23;19911;-75
2022/01/25 15:47:31;;;;;;;;;;;;;;;;;;;;;
2022/01/25 15:50:06;;;;;;;;;;;;;;;4.67;63.29;102179.81;6259158;23;19931;-77
2022/01/25 15:52:31;;;;;;;;;;;;;;;4.67;62.60;102183.38;6229987;23;20687;-76
2022/01/25 15:54:57;;;;;;;;;;;;;;;4.70;62.58;102177.59;6229553;23;19911;-76
2022/01/25 15:57:22;;;;;;;;;;;;;;;4.71;62.49;102173.84;6203054;23;19907;-78
2022/01/25 15:59:59;;;;;;;;;;;;;;;4.69;63.30;102181.31;6255429;23;19986;-74
2022/01/25 16:02:27;;;;;;;;;;;;;;;4.66;62.78;102176.28;6232653;23;19907;-76
2022/01/25 16:05:17;;;;;;;;;;;;;;;4.61;63.02;102178.69;6228404;23;20345;-76
2022/01/25 16:07:47;;;;;;;;;;;;;;;4.57;62.65;102177.38;6254423;23;19904;-75
2022/01/25 16:10:25;;;;;;;;;;;;;;;4.52;62.65;102179.78;6231439;23;19903;-76
2022/01/25 16:19:40;;;;;;;;;;;;;;;4.52;63.10;102168.94;6250440;23;19907;-78
2022/01/25 16:28:50;;;;;;;;;;;;;;;4.37;63.21;102161.63;6193379;23;19947;-79
2022/01/25 16:32:24;;;;;;;;;;;;;;;4.32;63.38;102157.78;6147197;23;19910;-78
2022/01/25 16:44:46;;;;;;;;;;;;;;;;;;;;;